createdAt,value
2018-12-29T00:00:59.021Z,4.63
2018-12-29T00:03:27.363Z,4.47
2018-12-29T00:05:55.343Z,4.50
2018-12-29T00:08:23.360Z,4.30
2018-12-29T00:10:51.373Z,4.30
2018-12-29T00:13:19.401Z,3.90
2018-12-29T00:15:47.514Z,4.03
2018-12-29T00:18:15.549Z,4.07
2018-12-29T00:20:43.589Z,4.10
2018-12-29T00:23:11.476Z,3.93
2018-12-29T00:25:40.304Z,4.57
2018-12-29T00:28:09.568Z,4.57
2018-12-29T00:30:37.483Z,4.23
2018-12-29T00:33:05.435Z,4.07
2018-12-29T00:35:33.355Z,4.53
2018-12-29T00:38:01.340Z,4.60
2018-12-29T00:40:29.283Z,4.70
2018-12-29T00:42:57.287Z,4.70
2018-12-29T00:45:25.245Z,4.33
2018-12-29T00:47:53.173Z,4.07
2018-12-29T00:50:21.116Z,4.40
2018-12-29T00:52:49.125Z,4.40
2018-12-29T00:55:17.229Z,3.97
2018-12-29T00:57:46.083Z,4.30
2018-12-29T01:00:14.111Z,4.40
2018-12-29T01:02:42.030Z,4.60
2018-12-29T01:05:10.313Z,4.17
2018-12-29T01:07:38.232Z,4.30
2018-12-29T01:10:06.151Z,4.80
2018-12-29T01:12:34.087Z,4.67
2018-12-29T01:15:02.057Z,4.77
2018-12-29T01:17:30.060Z,4.83
2018-12-29T01:19:58.071Z,5.17
2018-12-29T01:22:26.112Z,5.07
2018-12-29T01:24:54.267Z,4.60
2018-12-29T01:27:22.257Z,4.63
2018-12-29T01:29:52.920Z,4.53
2018-12-29T01:32:20.909Z,4.53
2018-12-29T01:34:48.840Z,4.40
2018-12-29T01:37:16.783Z,5.07
2018-12-29T01:39:44.692Z,4.57
2018-12-29T01:42:12.591Z,4.50
2018-12-29T01:44:40.554Z,4.47
2018-12-29T01:47:08.808Z,4.67
2018-12-29T01:49:36.857Z,4.90
2018-12-29T01:52:04.825Z,4.00
2018-12-29T01:54:32.824Z,3.73
2018-12-29T01:57:00.870Z,3.90
2018-12-29T01:59:28.915Z,3.77
2018-12-29T02:01:57.274Z,4.30
2018-12-29T02:04:25.272Z,4.70
2018-12-29T02:06:53.316Z,4.47
2018-12-29T02:09:21.290Z,4.40
2018-12-29T02:11:49.323Z,4.80
2018-12-29T02:14:17.224Z,5.10
2018-12-29T02:16:45.177Z,4.80
2018-12-29T02:19:13.231Z,4.53
2018-12-29T02:21:41.285Z,4.90
2018-12-29T02:24:09.242Z,4.40
2018-12-29T02:26:37.380Z,4.43
2018-12-29T02:29:05.430Z,4.27
2018-12-29T02:31:33.435Z,4.00
2018-12-29T02:34:01.372Z,4.37
2018-12-29T02:36:29.379Z,4.20
2018-12-29T02:38:57.391Z,4.30
2018-12-29T02:41:25.423Z,3.80
2018-12-29T02:43:53.688Z,3.80
2018-12-29T02:46:22.504Z,3.67
2018-12-29T02:48:50.461Z,3.93
2018-12-29T02:51:18.410Z,3.97
2018-12-29T02:53:46.440Z,3.53
2018-12-29T02:56:14.490Z,3.97
2018-12-29T02:58:42.618Z,3.83
2018-12-29T03:01:10.565Z,3.90
2018-12-29T03:03:38.913Z,3.70
2018-12-29T03:06:06.855Z,3.10
2018-12-29T03:08:34.784Z,3.50
2018-12-29T03:11:02.702Z,3.30
2018-12-29T03:13:30.688Z,3.60
2018-12-29T03:15:58.652Z,3.70
2018-12-29T03:18:26.689Z,3.90
2018-12-29T03:20:54.667Z,3.43
2018-12-29T03:23:22.587Z,3.30
2018-12-29T03:25:50.528Z,3.60
2018-12-29T03:28:18.500Z,3.50
2018-12-29T03:30:46.773Z,3.03
2018-12-29T03:33:14.817Z,3.17
2018-12-29T03:35:42.817Z,3.23
2018-12-29T03:38:10.813Z,3.40
2018-12-29T03:40:38.785Z,3.40
2018-12-29T03:43:06.731Z,3.40
2018-12-29T03:45:34.737Z,3.20
2018-12-29T03:48:02.752Z,3.10
2018-12-29T03:50:31.203Z,2.87
2018-12-29T03:52:59.212Z,2.90
2018-12-29T03:55:27.247Z,2.80
2018-12-29T03:57:55.308Z,2.73
2018-12-29T04:00:23.328Z,2.93
2018-12-29T04:02:51.630Z,2.60
2018-12-29T04:05:19.582Z,2.90
2018-12-29T04:07:47.568Z,2.73
2018-12-29T04:10:16.559Z,2.47
2018-12-29T04:12:46.600Z,2.50
2018-12-29T04:15:14.569Z,2.83
2018-12-29T04:17:42.640Z,2.80
2018-12-29T04:20:10.620Z,2.93
2018-12-29T04:22:38.590Z,2.93
2018-12-29T04:25:06.650Z,2.83
2018-12-29T04:27:34.600Z,3.10
2018-12-29T04:30:02.515Z,3.30
2018-12-29T04:32:30.535Z,3.10
2018-12-29T04:34:58.504Z,3.10
2018-12-29T04:37:27.189Z,3.50
2018-12-29T04:39:56.151Z,3.33
2018-12-29T04:42:24.159Z,3.20
2018-12-29T04:44:52.243Z,3.40
2018-12-29T04:47:20.139Z,3.23
2018-12-29T04:49:48.284Z,2.90
2018-12-29T04:52:16.207Z,3.03
2018-12-29T04:54:44.225Z,3.17
2018-12-29T04:57:12.260Z,3.33
2018-12-29T04:59:40.262Z,3.47
2018-12-29T05:02:08.251Z,3.10
2018-12-29T05:04:36.161Z,3.77
2018-12-29T05:07:04.160Z,3.30
2018-12-29T05:09:32.101Z,3.30
2018-12-29T05:12:00.188Z,3.67
2018-12-29T05:14:28.205Z,3.90
2018-12-29T05:16:56.131Z,3.80
2018-12-29T05:19:24.100Z,3.70
2018-12-29T05:21:52.048Z,3.50
2018-12-29T05:24:20.084Z,3.50
2018-12-29T05:26:47.976Z,3.60
2018-12-29T05:29:15.894Z,3.60
2018-12-29T05:31:43.927Z,3.70
2018-12-29T05:34:11.959Z,3.53
2018-12-29T05:36:39.871Z,3.37
2018-12-29T05:39:07.860Z,3.60
2018-12-29T05:41:35.804Z,3.60
2018-12-29T05:44:03.780Z,3.77
2018-12-29T05:46:31.874Z,4.00
2018-12-29T05:48:59.848Z,3.90
2018-12-29T05:51:27.787Z,4.10
2018-12-29T05:53:56.065Z,3.87
2018-12-29T05:56:24.096Z,4.13
2018-12-29T05:58:52.096Z,3.70
2018-12-29T06:01:20.136Z,4.03
2018-12-29T06:03:48.177Z,3.70
2018-12-29T06:06:16.459Z,3.67
2018-12-29T06:08:44.424Z,3.87
2018-12-29T06:11:12.446Z,3.43
2018-12-29T06:13:42.143Z,3.47
2018-12-29T06:16:10.208Z,3.50
2018-12-29T06:18:38.217Z,4.30
2018-12-29T06:21:06.383Z,3.97
2018-12-29T06:23:34.605Z,3.77
2018-12-29T06:26:02.764Z,3.80
2018-12-29T06:28:30.825Z,3.73
2018-12-29T06:30:59.156Z,3.93
2018-12-29T06:33:27.324Z,3.73
2018-12-29T06:35:55.328Z,4.23
2018-12-29T06:38:23.689Z,3.70
2018-12-29T06:40:51.906Z,4.07
2018-12-29T06:43:19.992Z,3.60
2018-12-29T06:45:48.051Z,3.50
2018-12-29T06:48:16.121Z,4.10
2018-12-29T06:50:44.365Z,3.90
2018-12-29T06:53:12.472Z,4.00
2018-12-29T06:55:40.468Z,4.10
2018-12-29T06:58:08.479Z,3.70
2018-12-29T07:00:37.818Z,3.80
2018-12-29T07:03:05.843Z,3.80
2018-12-29T07:05:33.851Z,4.20
2018-12-29T07:08:01.980Z,3.90
2018-12-29T07:10:29.980Z,4.07
2018-12-29T07:12:58.043Z,4.20
2018-12-29T07:15:26.123Z,4.13
2018-12-29T07:17:54.155Z,4.23
2018-12-29T07:20:22.163Z,4.13
2018-12-29T07:22:50.132Z,4.23
2018-12-29T07:25:18.546Z,4.30
2018-12-29T07:27:46.698Z,3.97
2018-12-29T07:30:14.845Z,4.10
2018-12-29T07:32:42.945Z,4.10
2018-12-29T07:35:11.231Z,4.30
2018-12-29T07:37:39.348Z,4.03
2018-12-29T07:40:07.403Z,3.87
2018-12-29T07:42:35.619Z,3.97
2018-12-29T07:45:03.884Z,4.00
2018-12-29T07:47:32.031Z,4.27
2018-12-29T07:50:00.235Z,4.13
2018-12-29T07:52:28.257Z,4.10
2018-12-29T07:54:57.331Z,4.20
2018-12-29T07:57:27.331Z,4.30
2018-12-29T07:59:56.207Z,3.87
2018-12-29T08:02:24.453Z,4.47
2018-12-29T08:04:52.483Z,4.70
2018-12-29T08:07:20.533Z,4.47
2018-12-29T08:09:50.068Z,4.50
2018-12-29T08:12:18.336Z,5.00
2018-12-29T08:14:46.933Z,4.57
2018-12-29T08:17:14.991Z,4.93
2018-12-29T08:19:43.679Z,4.70
2018-12-29T08:22:11.854Z,5.17
2018-12-29T08:24:39.930Z,4.90
2018-12-29T08:27:09.131Z,4.60
2018-12-29T08:29:39.108Z,4.73
2018-12-29T08:32:07.187Z,4.60
2018-12-29T08:34:35.226Z,5.03
2018-12-29T08:37:03.287Z,5.43
2018-12-29T08:39:32.176Z,5.57
2018-12-29T08:42:00.209Z,5.60
2018-12-29T08:44:28.251Z,5.03
2018-12-29T08:46:56.332Z,5.43
2018-12-29T08:49:24.392Z,5.83
2018-12-29T08:51:52.595Z,6.00
2018-12-29T08:54:20.635Z,5.70
2018-12-29T08:56:48.749Z,5.73
2018-12-29T08:59:16.873Z,5.53
2018-12-29T09:01:44.890Z,5.70
2018-12-29T09:04:12.858Z,5.23
2018-12-29T09:06:40.901Z,5.73
2018-12-29T09:09:09.036Z,5.23
2018-12-29T09:11:37.156Z,5.60
2018-12-29T09:14:05.269Z,5.47
2018-12-29T09:16:33.388Z,5.50
2018-12-29T09:19:01.436Z,5.70
2018-12-29T09:21:29.536Z,5.67
2018-12-29T09:23:57.655Z,6.70
2018-12-29T09:26:27.185Z,4.93
2018-12-29T09:28:56.521Z,4.67
2018-12-29T09:31:25.533Z,4.67
2018-12-29T09:33:53.697Z,4.37
2018-12-29T09:36:21.894Z,4.10
2018-12-29T09:38:52.416Z,3.87
2018-12-29T09:41:20.525Z,4.20
2018-12-29T09:43:48.788Z,3.27
2018-12-29T09:46:17.734Z,3.20
2018-12-29T09:48:45.922Z,3.13
2018-12-29T09:51:15.517Z,3.20
2018-12-29T09:53:44.173Z,3.70
2018-12-29T09:56:12.496Z,3.47
2018-12-29T09:58:40.578Z,3.73
2018-12-29T10:01:08.614Z,3.20
2018-12-29T10:03:37.188Z,3.30
2018-12-29T10:06:05.694Z,3.27
2018-12-29T10:08:33.879Z,2.80
2018-12-29T10:11:02.028Z,2.80
2018-12-29T10:13:31.129Z,2.97
2018-12-29T10:15:59.217Z,2.93
2018-12-29T10:18:27.247Z,2.70
2018-12-29T10:20:55.679Z,2.90
2018-12-29T10:23:23.599Z,3.10
2018-12-29T10:25:51.561Z,3.20
2018-12-29T10:28:19.624Z,2.87
2018-12-29T10:30:47.568Z,3.67
2018-12-29T10:33:15.547Z,3.27
2018-12-29T10:35:43.582Z,2.93
2018-12-29T10:38:12.362Z,3.13
2018-12-29T10:40:40.675Z,3.13
2018-12-29T10:43:08.841Z,3.30
2018-12-29T10:45:36.888Z,3.70
2018-12-29T10:48:04.959Z,3.60
2018-12-29T10:50:33.035Z,4.07
2018-12-29T10:53:01.081Z,3.80
2018-12-29T10:55:29.048Z,3.77
2018-12-29T10:57:57.058Z,4.10
2018-12-29T11:00:25.068Z,3.90
2018-12-29T11:02:53.223Z,3.80
2018-12-29T11:05:21.444Z,3.80
2018-12-29T11:07:49.405Z,3.80
2018-12-29T11:10:17.784Z,4.00
2018-12-29T11:12:45.833Z,4.37
2018-12-29T11:15:13.872Z,4.23
2018-12-29T11:17:42.310Z,3.80
2018-12-29T11:20:10.999Z,4.00
2018-12-29T11:22:39.014Z,4.20
2018-12-29T11:25:07.124Z,3.97
2018-12-29T11:27:35.180Z,4.10
2018-12-29T11:30:03.251Z,3.80
2018-12-29T11:32:33.077Z,4.30
2018-12-29T11:35:01.033Z,4.00
2018-12-29T11:37:29.020Z,3.80
2018-12-29T11:39:57.124Z,3.57
2018-12-29T11:42:25.351Z,3.50
2018-12-29T11:44:53.516Z,3.50
2018-12-29T11:47:21.472Z,3.60
2018-12-29T11:49:49.580Z,3.73
2018-12-29T11:52:17.643Z,3.40
2018-12-29T11:54:45.726Z,3.60
2018-12-29T11:57:13.723Z,3.60
2018-12-29T11:59:41.862Z,3.70
2018-12-29T12:02:09.967Z,4.10
2018-12-29T12:04:37.955Z,3.57
2018-12-29T12:07:06.002Z,3.27
2018-12-29T12:09:34.043Z,4.10
2018-12-29T12:12:02.057Z,4.20
2018-12-29T12:14:30.153Z,4.47
2018-12-29T12:16:58.225Z,3.70
2018-12-29T12:19:26.277Z,3.80
2018-12-29T12:21:54.278Z,3.67
2018-12-29T12:24:22.408Z,4.37
2018-12-29T12:26:50.440Z,3.83
2018-12-29T12:29:18.480Z,4.87
2018-12-29T12:31:46.540Z,3.97
2018-12-29T12:34:14.559Z,5.57
2018-12-29T12:36:42.982Z,4.70
2018-12-29T12:39:11.092Z,4.23
2018-12-29T12:41:39.123Z,3.83
2018-12-29T12:44:07.137Z,3.80
2018-12-29T12:46:35.142Z,4.63
2018-12-29T12:49:03.357Z,5.20
2018-12-29T12:51:31.469Z,4.90
2018-12-29T12:53:59.805Z,4.83
2018-12-29T12:56:27.911Z,4.60
2018-12-29T12:58:56.320Z,4.73
2018-12-29T13:01:24.902Z,5.00
2018-12-29T13:03:53.098Z,5.00
2018-12-29T13:06:21.132Z,5.00
2018-12-29T13:08:49.669Z,4.53
2018-12-29T13:11:17.981Z,4.97
2018-12-29T13:13:46.278Z,4.80
2018-12-29T13:16:14.653Z,4.93
2018-12-29T13:18:42.741Z,5.37
2018-12-29T13:21:10.824Z,5.93
2018-12-29T13:23:38.820Z,6.00
2018-12-29T13:26:07.470Z,5.97
2018-12-29T13:28:35.580Z,9.03
2018-12-29T13:31:03.676Z,6.97
2018-12-29T13:33:31.728Z,5.80
2018-12-29T13:36:02.439Z,6.43
2018-12-29T13:38:30.699Z,5.70
2018-12-29T13:40:58.801Z,6.17
2018-12-29T13:43:26.871Z,7.13
2018-12-29T13:45:55.102Z,5.93
2018-12-29T13:48:23.171Z,6.30
2018-12-29T13:50:51.491Z,5.60
2018-12-29T13:53:19.612Z,5.90
2018-12-29T13:55:47.640Z,5.70
2018-12-29T13:58:15.684Z,6.23
2018-12-29T14:00:43.832Z,6.03
2018-12-29T14:03:12.617Z,6.50
2018-12-29T14:05:40.876Z,6.10
2018-12-29T14:08:08.982Z,6.37
2018-12-29T14:10:37.067Z,6.33
2018-12-29T14:13:05.177Z,6.97
2018-12-29T14:15:33.476Z,7.17
2018-12-29T14:18:01.992Z,6.77
2018-12-29T14:20:30.126Z,7.23
2018-12-29T14:23:01.291Z,6.97
2018-12-29T14:25:29.460Z,6.53
2018-12-29T14:27:58.621Z,7.20
2018-12-29T14:30:26.655Z,7.20
2018-12-29T14:32:56.414Z,7.30
2018-12-29T14:35:25.826Z,7.33
2018-12-29T14:37:53.918Z,6.57
2018-12-29T14:40:22.119Z,7.47
2018-12-29T14:42:51.426Z,7.47
2018-12-29T14:45:19.524Z,8.57
2018-12-29T14:47:47.620Z,7.33
2018-12-29T14:50:15.694Z,7.80
2018-12-29T14:52:44.255Z,8.50
2018-12-29T14:55:12.557Z,10.03
2018-12-29T14:57:40.659Z,8.80
2018-12-29T15:00:08.898Z,7.97
2018-12-29T15:02:36.951Z,8.03
2018-12-29T15:05:05.206Z,7.83
2018-12-29T15:07:33.387Z,11.43
2018-12-29T15:10:02.182Z,8.33
2018-12-29T15:12:31.752Z,8.63
2018-12-29T15:14:59.897Z,8.70
2018-12-29T15:17:27.977Z,8.50
2018-12-29T15:19:56.012Z,8.40
2018-12-29T15:22:24.242Z,8.73
2018-12-29T15:24:52.425Z,8.33
2018-12-29T15:27:20.532Z,7.93
2018-12-29T15:29:48.608Z,11.63
2018-12-29T15:32:17.474Z,8.60
2018-12-29T15:34:45.553Z,7.70
2018-12-29T15:37:13.608Z,6.93
2018-12-29T15:39:41.734Z,12.07
2018-12-29T15:42:09.792Z,11.47
2018-12-29T15:44:37.865Z,10.10
2018-12-29T15:47:06.505Z,22.77
2018-12-29T15:49:34.556Z,11.27
2018-12-29T15:52:02.631Z,10.73
2018-12-29T15:54:31.090Z,9.23
2018-12-29T15:56:59.116Z,8.30
2018-12-29T15:59:27.432Z,8.53
2018-12-29T16:01:55.510Z,10.90
2018-12-29T16:04:23.536Z,8.83
2018-12-29T16:06:51.605Z,8.37
2018-12-29T16:09:19.643Z,8.67
2018-12-29T16:11:47.983Z,9.07
2018-12-29T16:14:16.067Z,12.20
2018-12-29T16:16:44.617Z,11.97
2018-12-29T16:19:12.658Z,10.57
2018-12-29T16:21:40.756Z,8.87
2018-12-29T16:24:10.322Z,11.63
2018-12-29T16:26:38.376Z,12.10
2018-12-29T16:29:06.415Z,12.77
2018-12-29T16:31:34.504Z,10.33
2018-12-29T16:34:03.264Z,10.77
2018-12-29T16:36:31.504Z,10.93
2018-12-29T16:38:59.685Z,25.37
2018-12-29T16:41:27.756Z,12.00
2018-12-29T16:43:56.048Z,18.13
2018-12-29T16:46:24.201Z,20.73
2018-12-29T16:48:52.236Z,17.50
2018-12-29T16:51:20.342Z,30.27
2018-12-29T16:53:49.353Z,9.90
2018-12-29T16:56:17.736Z,9.27
2018-12-29T16:58:46.191Z,10.90
2018-12-29T17:01:14.208Z,10.53
2018-12-29T17:03:42.744Z,15.83
2018-12-29T17:06:10.915Z,12.60
2018-12-29T17:08:39.066Z,10.27
2018-12-29T17:11:07.824Z,11.77
2018-12-29T17:13:36.444Z,10.13
2018-12-29T17:16:04.749Z,9.63
2018-12-29T17:18:32.913Z,10.03
2018-12-29T17:21:01.476Z,14.30
2018-12-29T17:23:29.668Z,8.93
2018-12-29T17:25:57.753Z,9.40
2018-12-29T17:28:26.356Z,8.90
2018-12-29T17:30:54.669Z,8.40
2018-12-29T17:33:22.867Z,11.87
2018-12-29T17:35:51.212Z,12.00
2018-12-29T17:38:19.864Z,10.50
2018-12-29T17:40:50.528Z,11.77
2018-12-29T17:43:18.596Z,8.83
2018-12-29T17:45:46.715Z,8.33
2018-12-29T17:48:14.862Z,9.43
2018-12-29T17:50:43.045Z,10.87
2018-12-29T17:53:11.200Z,10.30
2018-12-29T17:55:39.461Z,8.30
2018-12-29T17:58:12.017Z,8.20
2018-12-29T18:00:40.415Z,8.10
2018-12-29T18:03:09.524Z,8.23
2018-12-29T18:05:37.803Z,8.50
2018-12-29T18:08:06.811Z,8.60
2018-12-29T18:10:35.019Z,10.60
2018-12-29T18:13:03.283Z,9.23
2018-12-29T18:15:31.529Z,10.10
2018-12-29T18:17:59.644Z,8.63
2018-12-29T18:20:27.737Z,54.87
2018-12-29T18:22:55.790Z,14.47
2018-12-29T18:25:24.524Z,10.77
2018-12-29T18:27:52.623Z,12.50
2018-12-29T18:30:20.954Z,26.73
2018-12-29T18:32:49.021Z,10.87
2018-12-29T18:35:17.127Z,12.70
2018-12-29T18:37:45.657Z,27.07
2018-12-29T18:40:13.716Z,14.60
2018-12-29T18:42:42.086Z,10.70
2018-12-29T18:45:10.206Z,13.80
2018-12-29T18:47:43.172Z,14.00
2018-12-29T18:50:11.337Z,11.53
2018-12-29T18:52:39.501Z,24.60
2018-12-29T18:55:08.189Z,27.47
2018-12-29T18:57:36.501Z,15.83
2018-12-29T19:00:06.448Z,11.33
2018-12-29T19:02:34.605Z,18.23
2018-12-29T19:05:02.726Z,8.83
2018-12-29T19:07:30.865Z,10.83
2018-12-29T19:09:59.316Z,14.50
2018-12-29T19:12:28.197Z,15.60
2018-12-29T19:14:56.330Z,11.77
2018-12-29T19:17:24.591Z,12.33
2018-12-29T19:19:53.972Z,9.73
2018-12-29T19:22:23.156Z,9.90
2018-12-29T19:24:52.057Z,11.37
2018-12-29T19:27:20.237Z,9.80
2018-12-29T19:29:48.551Z,8.77
2018-12-29T19:32:16.961Z,11.03
2018-12-29T19:34:45.808Z,11.73
2018-12-29T19:37:14.736Z,17.03
2018-12-29T19:39:43.569Z,13.97
2018-12-29T19:42:11.968Z,9.13
2018-12-29T19:44:40.936Z,10.67
2018-12-29T19:47:14.323Z,9.77
2018-12-29T19:49:45.071Z,11.70
2018-12-29T19:52:14.392Z,9.60
2018-12-29T19:54:44.136Z,8.53
2018-12-29T19:57:23.592Z,15.93
2018-12-29T19:59:55.657Z,13.80
2018-12-29T20:02:25.306Z,7.53
2018-12-29T20:04:54.877Z,8.47
2018-12-29T20:07:23.650Z,10.57
2018-12-29T20:09:54.155Z,11.80
2018-12-29T20:12:22.435Z,11.20
2018-12-29T20:14:50.602Z,16.80
2018-12-29T20:17:18.962Z,16.10
2018-12-29T20:19:53.142Z,18.60
2018-12-29T20:22:26.891Z,11.90
2018-12-29T20:24:55.337Z,17.47
2018-12-29T20:27:26.089Z,11.77
2018-12-29T20:29:54.384Z,7.90
2018-12-29T20:32:22.554Z,7.97
2018-12-29T20:34:50.760Z,10.47
2018-12-29T20:37:18.870Z,35.90
2018-12-29T20:39:47.081Z,14.63
2018-12-29T20:42:17.668Z,7.80
2018-12-29T20:44:45.748Z,8.27
2018-12-29T20:47:20.604Z,7.53
2018-12-29T20:49:50.593Z,12.15
2018-12-29T20:58:31.107Z,9.40
2018-12-29T21:00:59.165Z,9.47
2018-12-29T21:03:27.255Z,10.30
2018-12-29T21:05:55.344Z,9.67
2018-12-29T21:08:23.416Z,9.63
2018-12-29T21:10:51.676Z,9.10
2018-12-29T21:13:19.825Z,10.10
2018-12-29T21:15:48.786Z,8.40
2018-12-29T21:18:16.964Z,8.07
2018-12-29T21:20:44.984Z,8.40
2018-12-29T21:23:13.049Z,8.30
2018-12-29T21:25:41.261Z,8.67
2018-12-29T21:28:09.376Z,7.20
2018-12-29T21:30:37.376Z,7.60
2018-12-29T21:33:05.416Z,7.87
2018-12-29T21:35:33.408Z,7.57
2018-12-29T21:38:01.407Z,7.10
2018-12-29T21:40:29.506Z,6.20
2018-12-29T21:42:57.492Z,6.80
2018-12-29T21:45:25.504Z,7.33
2018-12-29T21:47:53.551Z,6.53
2018-12-29T21:50:25.414Z,6.67
2018-12-29T21:52:51.396Z,6.87
2018-12-29T21:55:19.467Z,7.00
2018-12-29T21:57:47.435Z,7.20
2018-12-29T22:00:15.717Z,6.87
2018-12-29T22:02:43.782Z,6.97
2018-12-29T22:05:11.931Z,6.97
2018-12-29T22:07:40.404Z,7.17
2018-12-29T22:10:08.451Z,7.33
2018-12-29T22:12:36.428Z,7.93
2018-12-29T22:15:07.349Z,7.03
2018-12-29T22:17:35.422Z,8.63
2018-12-29T22:20:03.395Z,7.73
2018-12-29T22:22:31.902Z,8.73
2018-12-29T22:24:59.940Z,8.37
2018-12-29T22:27:27.939Z,7.53
2018-12-29T22:29:56.065Z,7.67
2018-12-29T22:32:24.044Z,7.30
2018-12-29T22:34:52.045Z,8.10
2018-12-29T22:37:20.032Z,7.13
2018-12-29T22:39:48.092Z,7.30
2018-12-29T22:42:16.114Z,6.53
2018-12-29T22:44:44.173Z,7.03
2018-12-29T22:47:12.419Z,6.57
2018-12-29T22:49:40.753Z,6.97
2018-12-29T22:52:08.759Z,6.87
2018-12-29T22:54:36.779Z,7.10
2018-12-29T22:57:04.760Z,6.57
2018-12-29T22:59:32.798Z,7.07
2018-12-29T23:02:00.869Z,6.87
2018-12-29T23:04:28.905Z,7.30
2018-12-29T23:06:56.904Z,6.30
2018-12-29T23:09:24.892Z,6.27
2018-12-29T23:11:52.923Z,6.27
2018-12-29T23:14:20.978Z,6.93
2018-12-29T23:16:49.308Z,6.63
2018-12-29T23:19:17.333Z,6.70
2018-12-29T23:21:45.321Z,6.70
2018-12-29T23:24:13.516Z,6.67
2018-12-29T23:26:41.484Z,5.67
2018-12-29T23:29:09.789Z,5.87
2018-12-29T23:31:37.759Z,6.00
2018-12-29T23:34:05.762Z,6.10
2018-12-29T23:36:33.731Z,6.10
2018-12-29T23:39:01.920Z,5.33
2018-12-29T23:41:29.891Z,5.27
2018-12-29T23:43:57.876Z,5.80
2018-12-29T23:46:25.871Z,5.13
2018-12-29T23:48:53.833Z,5.60
2018-12-29T23:51:21.832Z,5.20
2018-12-29T23:53:49.813Z,5.57
2018-12-29T23:56:17.967Z,5.97
2018-12-29T23:58:45.951Z,5.77
